createdAt,value
2019-03-02T00:00:14.284Z,6.94
2019-03-02T00:01:14.505Z,6.91
2019-03-02T00:02:14.816Z,6.92
2019-03-02T00:03:14.087Z,6.88
2019-03-02T00:04:14.364Z,6.86
2019-03-02T00:05:14.627Z,6.85
2019-03-02T00:06:14.896Z,6.82
2019-03-02T00:07:14.210Z,6.91
2019-03-02T00:08:14.498Z,6.89
2019-03-02T00:09:14.767Z,6.85
2019-03-02T00:10:14.054Z,6.88
2019-03-02T00:11:14.112Z,6.88
2019-03-02T00:12:14.374Z,6.88
2019-03-02T00:13:14.648Z,6.88
2019-03-02T00:14:15.673Z,6.74
2019-03-02T00:15:14.771Z,6.79
2019-03-02T00:16:14.035Z,6.74
2019-03-02T00:17:15.386Z,6.74
2019-03-02T00:18:14.483Z,6.79
2019-03-02T00:19:14.763Z,6.84
2019-03-02T00:20:14.720Z,6.81
2019-03-02T00:21:14.194Z,6.88
2019-03-02T00:22:14.465Z,6.79
2019-03-02T00:23:15.738Z,6.79
2019-03-02T00:24:14.149Z,6.79
2019-03-02T00:25:14.820Z,6.81
2019-03-02T00:26:14.093Z,6.79
2019-03-02T00:27:14.361Z,6.79
2019-03-02T00:28:14.697Z,6.76
2019-03-02T00:29:14.969Z,6.85
2019-03-02T00:30:17.613Z,6.81
2019-03-02T00:31:14.306Z,6.86
2019-03-02T00:32:14.575Z,6.86
2019-03-02T00:33:16.526Z,6.85
2019-03-02T00:34:14.111Z,6.84
2019-03-02T00:35:14.380Z,6.84
2019-03-02T00:36:15.913Z,6.85
2019-03-02T00:37:14.664Z,6.84
2019-03-02T00:38:14.931Z,6.79
2019-03-02T00:39:15.532Z,6.81
2019-03-02T00:40:14.458Z,6.78
2019-03-02T00:41:14.503Z,6.75
2019-03-02T00:42:16.971Z,6.74
2019-03-02T00:43:14.133Z,6.81
2019-03-02T00:44:14.413Z,6.82
2019-03-02T00:45:15.411Z,6.79
2019-03-02T00:46:14.867Z,6.79
2019-03-02T00:47:14.126Z,6.81
2019-03-02T00:48:14.404Z,6.81
2019-03-02T00:49:14.674Z,6.79
2019-03-02T00:50:14.937Z,6.81
2019-03-02T00:51:14.028Z,6.82
2019-03-02T00:52:14.318Z,6.79
2019-03-02T00:53:14.587Z,6.75
2019-03-02T00:54:14.847Z,6.74
2019-03-02T00:55:14.119Z,6.74
2019-03-02T00:56:14.388Z,6.74
2019-03-02T00:57:18.299Z,6.72
2019-03-02T00:58:14.872Z,6.71
2019-03-02T00:59:14.138Z,6.71
2019-03-02T01:00:15.232Z,6.71
2019-03-02T01:01:14.474Z,6.74
2019-03-02T01:02:14.734Z,6.74
2019-03-02T01:03:15.579Z,6.76
2019-03-02T01:04:14.163Z,6.75
2019-03-02T01:05:14.475Z,6.71
2019-03-02T01:06:14.712Z,6.72
2019-03-02T01:07:14.008Z,6.71
2019-03-02T01:08:14.542Z,6.68
2019-03-02T01:09:14.825Z,6.69
2019-03-02T01:10:14.095Z,6.72
2019-03-02T01:11:14.166Z,6.71
2019-03-02T01:12:14.433Z,6.81
2019-03-02T01:13:16.747Z,6.74
2019-03-02T01:14:13.998Z,6.67
2019-03-02T01:15:14.252Z,6.72
2019-03-02T01:16:16.679Z,6.68
2019-03-02T01:17:14.173Z,6.71
2019-03-02T01:18:14.436Z,6.71
2019-03-02T01:19:17.539Z,6.65
2019-03-02T01:20:14.746Z,6.67
2019-03-02T01:21:14.830Z,6.69
2019-03-02T01:22:16.519Z,6.65
2019-03-02T01:23:14.646Z,6.68
2019-03-02T01:24:14.000Z,6.68
2019-03-02T01:25:14.444Z,6.68
2019-03-02T01:26:14.858Z,6.65
2019-03-02T01:27:14.118Z,6.68
2019-03-02T01:28:14.378Z,6.61
2019-03-02T01:29:15.469Z,6.74
2019-03-02T01:30:14.245Z,6.74
2019-03-02T01:31:14.299Z,6.75
2019-03-02T01:32:16.113Z,6.69
2019-03-02T01:33:14.714Z,6.69
2019-03-02T01:34:13.979Z,6.75
2019-03-02T01:35:16.374Z,6.72
2019-03-02T01:36:14.304Z,6.76
2019-03-02T01:37:14.572Z,6.67
2019-03-02T01:38:15.640Z,6.75
2019-03-02T01:39:14.895Z,6.69
2019-03-02T01:40:14.162Z,6.71
2019-03-02T01:41:17.623Z,6.71
2019-03-02T01:42:14.327Z,6.72
2019-03-02T01:43:14.595Z,6.75
2019-03-02T01:44:16.229Z,6.72
2019-03-02T01:45:14.795Z,6.72
2019-03-02T01:46:14.058Z,6.69
2019-03-02T01:47:15.729Z,6.64
2019-03-02T01:48:14.270Z,6.67
2019-03-02T01:49:14.533Z,6.63
2019-03-02T01:50:14.803Z,6.63
2019-03-02T01:51:14.915Z,6.61
2019-03-02T01:52:14.182Z,6.59
2019-03-02T01:53:14.448Z,6.59
2019-03-02T01:54:17.841Z,6.59
2019-03-02T01:55:14.585Z,6.55
2019-03-02T01:56:14.848Z,6.57
2019-03-02T01:57:17.099Z,6.54
2019-03-02T01:58:14.161Z,6.54
2019-03-02T01:59:14.422Z,6.54
2019-03-02T02:00:14.729Z,6.52
2019-03-02T02:01:14.781Z,6.55
2019-03-02T02:02:14.051Z,6.52
2019-03-02T02:03:14.320Z,6.51
2019-03-02T02:04:14.578Z,6.51
2019-03-02T02:05:14.853Z,6.55
2019-03-02T02:06:14.121Z,6.54
2019-03-02T02:07:17.770Z,6.55
2019-03-02T02:08:14.364Z,6.51
2019-03-02T02:09:14.655Z,6.52
2019-03-02T02:10:14.943Z,6.64
2019-03-02T02:11:14.492Z,6.68
2019-03-02T02:12:14.403Z,6.72
2019-03-02T02:13:14.676Z,6.72
2019-03-02T02:14:18.343Z,6.71
2019-03-02T02:15:13.994Z,6.68
2019-03-02T02:16:14.267Z,6.69
2019-03-02T02:17:17.300Z,6.67
2019-03-02T02:18:14.787Z,6.69
2019-03-02T02:19:14.052Z,6.67
2019-03-02T02:20:14.666Z,6.67
2019-03-02T02:21:14.402Z,6.64
2019-03-02T02:22:14.663Z,6.59
2019-03-02T02:23:14.926Z,6.58
2019-03-02T02:24:14.186Z,6.57
2019-03-02T02:25:14.470Z,6.54
2019-03-02T02:26:15.033Z,6.55
2019-03-02T02:27:14.292Z,6.49
2019-03-02T02:28:14.594Z,6.43
2019-03-02T02:29:14.941Z,6.45
2019-03-02T02:30:18.648Z,6.47
2019-03-02T02:31:14.131Z,6.47
2019-03-02T02:32:19.051Z,6.38
2019-03-02T02:33:14.400Z,6.41
2019-03-02T02:34:20.972Z,6.41
2019-03-02T02:35:14.808Z,6.40
2019-03-02T02:36:18.635Z,6.40
2019-03-02T02:37:14.588Z,6.31
2019-03-02T02:38:15.892Z,6.36
2019-03-02T02:39:14.907Z,6.34
2019-03-02T02:40:14.226Z,6.36
2019-03-02T02:41:21.892Z,6.33
2019-03-02T02:42:14.067Z,6.33
2019-03-02T02:43:20.119Z,6.31
2019-03-02T02:44:14.326Z,6.33
2019-03-02T02:45:15.135Z,6.31
2019-03-02T02:46:14.056Z,6.29
2019-03-02T02:47:14.331Z,6.29
2019-03-02T02:48:14.647Z,6.24
2019-03-02T02:49:14.919Z,6.27
2019-03-02T02:50:14.215Z,6.26
2019-03-02T02:51:14.256Z,6.21
2019-03-02T02:52:14.545Z,6.13
2019-03-02T02:53:14.833Z,6.09
2019-03-02T02:54:14.142Z,6.08
2019-03-02T02:55:14.429Z,6.06
2019-03-02T02:56:19.333Z,6.06
2019-03-02T02:57:14.671Z,6.05
2019-03-02T02:58:17.430Z,6.05
2019-03-02T02:59:14.719Z,6.03
2019-03-02T03:00:16.409Z,5.95
2019-03-02T03:01:14.132Z,5.95
2019-03-02T03:02:14.425Z,5.92
2019-03-02T03:03:15.841Z,5.92
2019-03-02T03:04:14.360Z,5.86
2019-03-02T03:05:15.352Z,5.91
2019-03-02T03:06:14.643Z,5.86
2019-03-02T03:07:14.925Z,5.85
2019-03-02T03:08:14.207Z,5.88
2019-03-02T03:09:14.478Z,5.82
2019-03-02T03:10:14.761Z,5.81
2019-03-02T03:11:14.826Z,5.81
2019-03-02T03:12:17.821Z,5.77
2019-03-02T03:13:14.951Z,5.79
2019-03-02T03:14:14.901Z,5.77
2019-03-02T03:15:14.355Z,5.72
2019-03-02T03:16:16.435Z,5.72
2019-03-02T03:17:14.257Z,5.72
2019-03-02T03:18:15.125Z,5.71
2019-03-02T03:19:14.690Z,5.71
2019-03-02T03:20:14.965Z,5.71
2019-03-02T03:21:14.043Z,5.72
2019-03-02T03:22:14.313Z,5.67
2019-03-02T03:23:14.584Z,5.68
2019-03-02T03:24:14.861Z,5.67
2019-03-02T03:25:17.937Z,5.70
2019-03-02T03:26:14.643Z,5.72
2019-03-02T03:27:14.907Z,5.65
2019-03-02T03:28:14.205Z,5.62
2019-03-02T03:29:14.484Z,5.60
2019-03-02T03:30:14.757Z,5.64
2019-03-02T03:31:22.930Z,5.61
2019-03-02T03:32:14.425Z,5.64
2019-03-02T03:33:14.748Z,5.62
2019-03-02T03:34:14.031Z,5.62
2019-03-02T03:35:16.788Z,5.60
2019-03-02T03:36:14.321Z,5.64
2019-03-02T03:37:14.943Z,5.65
2019-03-02T03:38:14.353Z,5.61
2019-03-02T03:39:14.630Z,5.58
2019-03-02T03:40:14.915Z,5.58
2019-03-02T03:41:14.957Z,5.61
2019-03-02T03:42:22.169Z,5.58
2019-03-02T03:43:14.870Z,5.54
2019-03-02T03:44:17.084Z,5.51
2019-03-02T03:45:14.603Z,5.47
2019-03-02T03:46:17.683Z,5.50
2019-03-02T03:47:14.841Z,5.54
2019-03-02T03:48:17.747Z,5.55
2019-03-02T03:49:14.648Z,5.52
2019-03-02T03:50:15.735Z,5.60
2019-03-02T03:51:13.992Z,5.60
2019-03-02T03:52:14.288Z,5.54
2019-03-02T03:53:14.558Z,5.55
2019-03-02T03:54:14.834Z,5.57
2019-03-02T03:55:14.118Z,5.54
2019-03-02T03:56:14.656Z,5.57
2019-03-02T03:57:16.992Z,5.50
2019-03-02T03:58:14.834Z,5.48
2019-03-02T03:59:18.840Z,5.51
2019-03-02T04:00:14.818Z,5.44
2019-03-02T04:01:17.646Z,5.48
2019-03-02T04:02:14.484Z,5.52
2019-03-02T04:03:14.983Z,5.51
2019-03-02T04:04:14.345Z,5.54
2019-03-02T04:05:14.630Z,5.50
2019-03-02T04:06:14.891Z,5.51
2019-03-02T04:07:14.177Z,5.50
2019-03-02T04:08:14.457Z,5.50
2019-03-02T04:09:14.727Z,5.48
2019-03-02T04:10:14.015Z,5.50
2019-03-02T04:11:14.056Z,5.44
2019-03-02T04:12:14.341Z,5.50
2019-03-02T04:13:14.617Z,5.47
2019-03-02T04:14:18.991Z,5.44
2019-03-02T04:15:14.900Z,5.43
2019-03-02T04:16:16.088Z,5.43
2019-03-02T04:17:14.721Z,5.41
2019-03-02T04:18:16.278Z,5.40
2019-03-02T04:19:14.826Z,5.45
2019-03-02T04:20:14.090Z,5.43
2019-03-02T04:21:14.193Z,5.38
2019-03-02T04:22:14.474Z,5.43
2019-03-02T04:23:17.984Z,5.43
2019-03-02T04:24:14.437Z,5.43
2019-03-02T04:25:17.806Z,5.40
2019-03-02T04:26:14.920Z,5.35
2019-03-02T04:27:15.304Z,5.43
2019-03-02T04:28:14.436Z,5.40
2019-03-02T04:29:14.719Z,5.34
2019-03-02T04:30:14.026Z,5.40
2019-03-02T04:31:14.129Z,5.41
2019-03-02T04:32:14.404Z,5.40
2019-03-02T04:33:14.676Z,5.38
2019-03-02T04:34:20.132Z,5.35
2019-03-02T04:35:14.008Z,5.31
2019-03-02T04:36:14.284Z,5.35
2019-03-02T04:37:14.553Z,5.35
2019-03-02T04:38:14.825Z,5.34
2019-03-02T04:39:14.963Z,5.30
2019-03-02T04:40:14.376Z,5.30
2019-03-02T04:41:14.431Z,5.38
2019-03-02T04:42:15.428Z,5.34
2019-03-02T04:43:14.742Z,5.31
2019-03-02T04:44:14.015Z,5.33
2019-03-02T04:45:14.303Z,5.35
2019-03-02T04:46:15.374Z,5.34
2019-03-02T04:47:14.966Z,5.28
2019-03-02T04:48:14.229Z,5.28
2019-03-02T04:49:15.446Z,5.28
2019-03-02T04:50:14.861Z,5.27
2019-03-02T04:51:14.909Z,5.27
2019-03-02T04:52:14.500Z,5.28
2019-03-02T04:53:16.514Z,5.28
2019-03-02T04:54:14.908Z,5.30
2019-03-02T04:55:14.780Z,5.24
2019-03-02T04:56:14.122Z,5.26
2019-03-02T04:57:14.395Z,5.33
2019-03-02T04:58:14.672Z,5.27
2019-03-02T04:59:14.934Z,5.26
2019-03-02T05:00:14.225Z,5.28
2019-03-02T05:01:14.319Z,5.23
2019-03-02T05:02:16.691Z,5.23
2019-03-02T05:03:14.953Z,5.22
2019-03-02T05:04:14.217Z,5.23
2019-03-02T05:05:14.490Z,5.23
2019-03-02T05:06:15.581Z,5.20
2019-03-02T05:07:14.221Z,5.16
2019-03-02T05:08:14.499Z,5.22
2019-03-02T05:09:17.091Z,5.24
2019-03-02T05:10:14.142Z,5.20
2019-03-02T05:11:14.190Z,5.22
2019-03-02T05:12:14.745Z,5.20
2019-03-02T05:13:14.833Z,5.23
2019-03-02T05:14:14.100Z,5.20
2019-03-02T05:15:15.916Z,5.20
2019-03-02T05:16:14.838Z,5.24
2019-03-02T05:17:14.120Z,5.24
2019-03-02T05:18:14.714Z,5.22
2019-03-02T05:19:14.391Z,5.26
2019-03-02T05:20:14.659Z,5.26
2019-03-02T05:21:14.717Z,5.24
2019-03-02T05:22:15.466Z,5.27
2019-03-02T05:23:14.085Z,5.23
2019-03-02T05:24:14.358Z,5.23
2019-03-02T05:25:15.593Z,5.24
2019-03-02T05:26:14.261Z,5.27
2019-03-02T05:27:14.537Z,5.24
2019-03-02T05:28:14.806Z,5.23
2019-03-02T05:29:14.740Z,5.24
2019-03-02T05:30:13.987Z,5.23
2019-03-02T05:31:14.057Z,5.22
2019-03-02T05:32:15.953Z,5.24
2019-03-02T05:33:14.019Z,5.24
2019-03-02T05:34:14.285Z,5.22
2019-03-02T05:35:15.374Z,5.23
2019-03-02T05:36:13.996Z,5.23
2019-03-02T05:37:14.256Z,5.26
2019-03-02T05:38:15.139Z,5.22
2019-03-02T05:39:17.243Z,5.23
2019-03-02T05:40:14.347Z,5.23
2019-03-02T05:41:14.699Z,5.23
2019-03-02T05:42:14.964Z,5.23
2019-03-02T05:43:14.232Z,5.20
2019-03-02T05:44:14.498Z,5.22
2019-03-02T05:45:14.768Z,5.20
2019-03-02T05:46:14.050Z,5.20
2019-03-02T05:47:14.337Z,5.22
2019-03-02T05:48:14.629Z,5.19
2019-03-02T05:49:15.648Z,5.23
2019-03-02T05:50:14.862Z,5.22
2019-03-02T05:51:14.909Z,5.22
2019-03-02T05:52:14.450Z,5.22
2019-03-02T05:53:14.140Z,5.20
2019-03-02T05:54:14.405Z,5.17
2019-03-02T05:55:17.885Z,5.17
2019-03-02T05:56:14.319Z,5.19
2019-03-02T05:57:14.595Z,5.20
2019-03-02T05:58:15.761Z,5.17
2019-03-02T05:59:14.389Z,5.19
2019-03-02T06:00:14.659Z,5.20
2019-03-02T06:01:14.749Z,5.17
2019-03-02T06:02:17.175Z,5.19
2019-03-02T06:03:14.479Z,5.17
2019-03-02T06:04:14.768Z,5.16
2019-03-02T06:05:14.052Z,5.17
2019-03-02T06:06:14.327Z,5.17
2019-03-02T06:07:14.600Z,5.16
2019-03-02T06:08:14.871Z,5.16
2019-03-02T06:09:14.813Z,5.20
2019-03-02T06:10:14.188Z,5.19
2019-03-02T06:11:14.220Z,5.17
2019-03-02T06:12:15.435Z,5.16
2019-03-02T06:13:14.625Z,5.19
2019-03-02T06:14:14.894Z,5.16
2019-03-02T06:15:14.170Z,5.22
2019-03-02T06:16:15.327Z,5.20
2019-03-02T06:17:14.649Z,5.19
2019-03-02T06:18:14.922Z,5.19
2019-03-02T06:19:17.382Z,5.22
2019-03-02T06:20:14.557Z,5.19
2019-03-02T06:21:14.626Z,5.17
2019-03-02T06:22:17.565Z,5.22
2019-03-02T06:23:14.279Z,5.19
2019-03-02T06:24:15.451Z,5.20
2019-03-02T06:25:20.344Z,5.19
2019-03-02T06:26:14.248Z,5.16
2019-03-02T06:27:14.517Z,5.16
2019-03-02T06:28:14.786Z,5.16
2019-03-02T06:29:14.053Z,5.16
2019-03-02T06:30:14.347Z,5.19
2019-03-02T06:31:15.710Z,5.17
2019-03-02T06:32:14.554Z,5.17
2019-03-02T06:33:14.816Z,5.19
2019-03-02T06:34:16.647Z,5.17
2019-03-02T06:35:14.075Z,5.20
2019-03-02T06:36:14.349Z,5.20
2019-03-02T06:37:16.961Z,5.20
2019-03-02T06:38:14.311Z,5.22
2019-03-02T06:39:14.575Z,5.19
2019-03-02T06:40:15.953Z,5.17
2019-03-02T06:41:14.910Z,5.22
2019-03-02T06:42:14.181Z,5.23
2019-03-02T06:43:17.760Z,5.20
2019-03-02T06:44:14.961Z,5.23
2019-03-02T06:45:14.270Z,5.20
2019-03-02T06:46:15.860Z,5.23
2019-03-02T06:47:14.109Z,5.26
2019-03-02T06:48:14.392Z,5.20
2019-03-02T06:49:16.681Z,5.20
2019-03-02T06:50:14.338Z,5.22
2019-03-02T06:51:14.422Z,5.17
2019-03-02T06:52:14.687Z,5.19
2019-03-02T06:53:14.958Z,5.19
2019-03-02T06:54:14.247Z,5.23
2019-03-02T06:55:14.521Z,5.20
2019-03-02T06:56:15.772Z,5.22
2019-03-02T06:57:14.901Z,5.23
2019-03-02T06:58:14.377Z,5.22
2019-03-02T06:59:14.638Z,5.23
2019-03-02T07:00:14.968Z,5.24
2019-03-02T07:01:14.966Z,5.22
2019-03-02T07:02:14.236Z,5.23
2019-03-02T07:03:14.503Z,5.19
2019-03-02T07:04:17.911Z,5.17
2019-03-02T07:05:14.273Z,5.16
2019-03-02T07:06:14.533Z,5.19
2019-03-02T07:07:14.843Z,5.16
2019-03-02T07:08:14.108Z,5.13
2019-03-02T07:09:14.389Z,5.16
2019-03-02T07:10:17.650Z,5.12
2019-03-02T07:11:14.721Z,5.09
2019-03-02T07:12:14.002Z,5.06
2019-03-02T07:13:14.284Z,5.10
2019-03-02T07:14:16.126Z,5.07
2019-03-02T07:15:14.513Z,5.12
2019-03-02T07:16:16.500Z,5.09
2019-03-02T07:17:14.002Z,5.16
2019-03-02T07:18:14.273Z,5.10
2019-03-02T07:19:16.666Z,5.09
2019-03-02T07:20:14.861Z,5.16
2019-03-02T07:21:14.921Z,5.12
2019-03-02T07:22:16.772Z,5.10
2019-03-02T07:23:14.239Z,5.10
2019-03-02T07:24:14.505Z,5.13
2019-03-02T07:25:14.786Z,5.14
2019-03-02T07:26:15.736Z,5.13
2019-03-02T07:27:14.896Z,5.16
2019-03-02T07:28:14.180Z,5.14
2019-03-02T07:29:17.637Z,5.13
2019-03-02T07:30:14.003Z,5.13
2019-03-02T07:31:14.077Z,5.14
2019-03-02T07:32:14.349Z,5.16
2019-03-02T07:33:14.613Z,5.14
2019-03-02T07:34:14.879Z,5.14
2019-03-02T07:35:15.776Z,5.17
2019-03-02T07:36:14.646Z,5.20
2019-03-02T07:37:14.903Z,5.24
2019-03-02T07:38:16.838Z,5.26
2019-03-02T07:39:14.554Z,5.24
2019-03-02T07:40:14.838Z,5.26
2019-03-02T07:41:14.894Z,5.31
2019-03-02T07:42:14.165Z,5.30
2019-03-02T07:43:14.436Z,5.35
2019-03-02T07:44:14.707Z,5.37
2019-03-02T07:45:13.982Z,5.37
2019-03-02T07:46:14.250Z,5.40
2019-03-02T07:47:14.520Z,5.38
2019-03-02T07:48:14.797Z,5.38
2019-03-02T07:49:14.264Z,5.44
2019-03-02T07:50:14.671Z,5.41
2019-03-02T07:51:14.723Z,5.48
2019-03-02T07:52:17.115Z,5.54
2019-03-02T07:53:14.820Z,5.50
2019-03-02T07:54:14.110Z,5.52
2019-03-02T07:55:14.631Z,5.48
2019-03-02T07:56:14.455Z,5.50
2019-03-02T07:57:14.722Z,5.48
2019-03-02T07:58:16.520Z,5.51
2019-03-02T07:59:14.033Z,5.52
2019-03-02T08:00:14.343Z,5.51
2019-03-02T08:01:16.618Z,5.54
2019-03-02T08:02:14.055Z,5.57
2019-03-02T08:03:14.327Z,5.57
2019-03-02T08:04:16.696Z,5.58
2019-03-02T08:05:14.491Z,5.57
2019-03-02T08:06:14.635Z,5.55
2019-03-02T08:07:14.908Z,5.57
2019-03-02T08:08:14.989Z,5.57
2019-03-02T08:09:14.351Z,5.60
2019-03-02T08:10:14.637Z,5.64
2019-03-02T08:11:14.695Z,5.64
2019-03-02T08:12:14.969Z,5.67
2019-03-02T08:13:14.237Z,5.62
2019-03-02T08:14:16.054Z,5.62
2019-03-02T08:15:14.483Z,5.61
2019-03-02T08:16:14.754Z,5.65
2019-03-02T08:17:14.424Z,5.65
2019-03-02T08:18:14.761Z,5.70
2019-03-02T08:19:14.028Z,5.68
2019-03-02T08:20:16.386Z,5.67
2019-03-02T08:21:14.373Z,5.67
2019-03-02T08:22:14.636Z,5.65
2019-03-02T08:23:14.902Z,5.68
2019-03-02T08:24:14.170Z,5.67
2019-03-02T08:25:14.441Z,5.70
2019-03-02T08:26:14.726Z,5.71
2019-03-02T08:27:13.990Z,5.72
2019-03-02T08:28:14.256Z,5.71
2019-03-02T08:29:17.665Z,5.75
2019-03-02T08:30:14.424Z,5.79
2019-03-02T08:31:14.491Z,5.77
2019-03-02T08:32:17.609Z,5.77
2019-03-02T08:33:14.512Z,5.75
2019-03-02T08:34:14.790Z,5.79
2019-03-02T08:35:14.069Z,5.84
2019-03-02T08:36:16.820Z,5.86
2019-03-02T08:37:16.472Z,5.84
2019-03-02T08:38:14.872Z,5.81
2019-03-02T08:39:14.718Z,5.81
2019-03-02T08:40:14.021Z,5.79
2019-03-02T08:41:14.076Z,5.78
2019-03-02T08:42:14.394Z,5.82
2019-03-02T08:43:16.373Z,5.81
2019-03-02T08:44:15.457Z,5.81
2019-03-02T08:45:14.248Z,5.86
2019-03-02T08:46:14.525Z,5.88
2019-03-02T08:47:14.788Z,5.89
2019-03-02T08:48:14.069Z,5.91
2019-03-02T08:49:14.329Z,5.81
2019-03-02T08:50:17.498Z,5.84
2019-03-02T08:51:14.684Z,5.84
2019-03-02T08:52:13.982Z,5.86
2019-03-02T08:53:14.253Z,5.91
2019-03-02T08:54:17.811Z,5.95
2019-03-02T08:55:14.943Z,5.88
2019-03-02T08:56:14.214Z,5.86
2019-03-02T08:57:14.488Z,5.84
2019-03-02T08:58:14.780Z,5.88
2019-03-02T08:59:14.037Z,5.89
2019-03-02T09:00:14.318Z,5.99
2019-03-02T09:01:15.288Z,5.99
2019-03-02T09:02:14.071Z,5.99
2019-03-02T09:03:14.333Z,5.92
2019-03-02T09:04:15.134Z,5.92
2019-03-02T09:05:14.444Z,5.98
2019-03-02T09:06:14.710Z,5.99
2019-03-02T09:07:13.983Z,5.99
2019-03-02T09:08:14.256Z,6.00
2019-03-02T09:09:14.531Z,6.03
2019-03-02T09:10:14.828Z,6.16
2019-03-02T09:11:14.855Z,6.12
2019-03-02T09:12:14.131Z,6.09
2019-03-02T09:13:14.399Z,6.08
2019-03-02T09:14:14.670Z,6.08
2019-03-02T09:15:14.932Z,6.12
2019-03-02T09:16:14.201Z,6.06
2019-03-02T09:17:17.656Z,6.17
2019-03-02T09:18:14.148Z,6.16
2019-03-02T09:19:16.716Z,6.14
2019-03-02T09:20:14.688Z,6.17
2019-03-02T09:21:14.788Z,6.13
2019-03-02T09:22:14.074Z,6.14
2019-03-02T09:23:15.153Z,6.08
2019-03-02T09:24:14.501Z,6.10
2019-03-02T09:25:14.774Z,6.13
2019-03-02T09:26:14.956Z,6.14
2019-03-02T09:27:14.343Z,6.13
2019-03-02T09:28:14.613Z,6.20
2019-03-02T09:29:14.876Z,6.23
2019-03-02T09:30:14.165Z,6.19
2019-03-02T09:31:14.230Z,6.16
2019-03-02T09:32:15.156Z,6.14
2019-03-02T09:33:14.456Z,6.19
2019-03-02T09:34:14.717Z,6.19
2019-03-02T09:35:16.137Z,6.10
2019-03-02T09:36:14.511Z,6.12
2019-03-02T09:37:14.774Z,6.09
2019-03-02T09:38:16.946Z,6.14
2019-03-02T09:39:14.070Z,6.14
2019-03-02T09:40:14.502Z,6.13
2019-03-02T09:41:14.414Z,6.20
2019-03-02T09:42:14.674Z,6.14
2019-03-02T09:43:16.140Z,6.17
2019-03-02T09:44:14.454Z,6.19
2019-03-02T09:45:14.719Z,6.12
2019-03-02T09:46:14.003Z,6.10
2019-03-02T09:47:14.283Z,6.14
2019-03-02T09:48:14.559Z,6.14
2019-03-02T09:49:14.826Z,6.17
2019-03-02T09:50:14.490Z,6.16
2019-03-02T09:51:14.462Z,6.17
2019-03-02T09:52:14.757Z,6.20
2019-03-02T09:53:14.031Z,6.27
2019-03-02T09:54:14.300Z,6.29
2019-03-02T09:55:14.737Z,6.30
2019-03-02T09:56:15.969Z,6.30
2019-03-02T09:57:14.502Z,6.38
2019-03-02T09:58:14.775Z,6.38
2019-03-02T09:59:14.038Z,6.47
2019-03-02T10:00:14.317Z,6.51
2019-03-02T10:01:15.606Z,6.48
2019-03-02T10:02:15.679Z,6.45
2019-03-02T10:03:14.009Z,6.49
2019-03-02T10:04:14.272Z,6.45
2019-03-02T10:05:14.777Z,6.47
2019-03-02T10:06:14.818Z,6.48
2019-03-02T10:07:14.089Z,6.55
2019-03-02T10:08:14.358Z,6.51
2019-03-02T10:09:14.652Z,6.58
2019-03-02T10:10:14.928Z,6.58
2019-03-02T10:11:14.006Z,6.47
2019-03-02T10:12:15.120Z,6.55
2019-03-02T10:13:14.475Z,6.57
2019-03-02T10:14:14.739Z,6.58
2019-03-02T10:15:14.019Z,6.64
2019-03-02T10:16:14.282Z,6.67
2019-03-02T10:17:14.564Z,6.64
2019-03-02T10:18:14.907Z,6.64
2019-03-02T10:19:14.185Z,6.67
2019-03-02T10:20:14.467Z,6.67
2019-03-02T10:21:14.511Z,6.65
2019-03-02T10:22:14.789Z,6.59
2019-03-02T10:23:14.047Z,6.54
2019-03-02T10:24:16.936Z,6.58
2019-03-02T10:25:14.243Z,6.64
2019-03-02T10:26:14.508Z,6.57
2019-03-02T10:27:17.059Z,6.55
2019-03-02T10:28:14.405Z,6.59
2019-03-02T10:29:14.661Z,6.54
2019-03-02T10:30:14.946Z,6.61
2019-03-02T10:31:14.010Z,6.58
2019-03-02T10:32:14.274Z,6.59
2019-03-02T10:33:14.561Z,6.67
2019-03-02T10:34:14.838Z,6.64
2019-03-02T10:35:16.913Z,6.64
2019-03-02T10:36:14.400Z,6.68
2019-03-02T10:37:14.677Z,6.69
2019-03-02T10:38:18.866Z,6.72
2019-03-02T10:39:14.338Z,6.82
2019-03-02T10:40:14.614Z,6.79
2019-03-02T10:41:16.643Z,6.84
2019-03-02T10:42:14.589Z,6.78
2019-03-02T10:43:14.852Z,6.88
2019-03-02T10:44:14.120Z,6.92
2019-03-02T10:45:14.401Z,6.88
2019-03-02T10:46:14.673Z,6.88
2019-03-02T10:47:15.109Z,6.91
2019-03-02T10:48:14.404Z,6.94
2019-03-02T10:49:14.691Z,6.98
2019-03-02T10:50:14.958Z,7.02
2019-03-02T10:51:14.022Z,7.05
2019-03-02T10:52:14.507Z,6.96
2019-03-02T10:53:14.810Z,6.85
2019-03-02T10:54:14.080Z,6.86
2019-03-02T10:55:14.362Z,6.89
2019-03-02T10:56:14.634Z,6.91
2019-03-02T10:57:14.894Z,6.95
2019-03-02T10:58:14.162Z,6.96
2019-03-02T10:59:15.501Z,6.98
2019-03-02T11:00:14.724Z,6.95
2019-03-02T11:01:14.791Z,6.84
2019-03-02T11:02:16.835Z,6.84
2019-03-02T11:03:14.345Z,6.92
2019-03-02T11:04:14.617Z,6.94
2019-03-02T11:05:16.684Z,6.82
2019-03-02T11:06:14.380Z,6.78
2019-03-02T11:07:14.656Z,6.79
2019-03-02T11:08:14.924Z,6.75
2019-03-02T11:09:22.137Z,6.75
2019-03-02T11:10:16.574Z,6.72
2019-03-02T11:11:14.059Z,6.69
2019-03-02T11:12:14.337Z,6.67
2019-03-02T11:13:15.857Z,6.64
2019-03-02T11:14:14.767Z,6.68
2019-03-02T11:15:14.043Z,6.63
2019-03-02T11:16:14.300Z,6.57
2019-03-02T11:17:14.584Z,6.49
2019-03-02T11:18:14.851Z,6.55
2019-03-02T11:19:14.116Z,6.58
2019-03-02T11:20:14.389Z,6.58
2019-03-02T11:21:14.742Z,6.63
2019-03-02T11:22:14.963Z,6.64
2019-03-02T11:23:15.636Z,6.59
2019-03-02T11:24:14.947Z,6.59
2019-03-02T11:25:14.219Z,6.69
2019-03-02T11:26:14.484Z,6.64
2019-03-02T11:27:14.755Z,6.74
2019-03-02T11:28:14.018Z,6.81
2019-03-02T11:29:14.290Z,6.79
2019-03-02T11:30:14.766Z,6.78
2019-03-02T11:31:14.827Z,6.82
2019-03-02T11:32:16.800Z,6.82
2019-03-02T11:33:14.574Z,6.82
2019-03-02T11:34:14.840Z,6.91
2019-03-02T11:35:14.098Z,6.84
2019-03-02T11:36:15.109Z,6.84
2019-03-02T11:37:14.450Z,6.85
2019-03-02T11:38:14.716Z,6.89
2019-03-02T11:39:17.175Z,6.91
2019-03-02T11:40:14.450Z,6.86
2019-03-02T11:41:14.500Z,6.86
2019-03-02T11:42:14.897Z,6.91
2019-03-02T11:43:16.221Z,6.95
2019-03-02T11:44:14.489Z,6.96
2019-03-02T11:45:14.774Z,6.96
2019-03-02T11:46:14.045Z,6.94
2019-03-02T11:47:14.321Z,6.95
2019-03-02T11:48:17.202Z,6.86
2019-03-02T11:49:14.748Z,6.88
2019-03-02T11:50:14.417Z,6.84
2019-03-02T11:51:14.115Z,6.85
2019-03-02T11:52:14.402Z,6.86
2019-03-02T11:53:15.878Z,6.84
2019-03-02T11:54:14.323Z,6.86
2019-03-02T11:55:14.584Z,6.89
2019-03-02T11:56:24.295Z,6.89
2019-03-02T11:57:17.729Z,6.86
2019-03-02T11:58:14.466Z,6.86
2019-03-02T11:59:14.738Z,6.88
2019-03-02T12:00:14.026Z,6.84
2019-03-02T12:01:14.127Z,6.84
2019-03-02T12:02:15.795Z,6.89
2019-03-02T12:03:14.282Z,6.91
2019-03-02T12:04:15.214Z,6.86
2019-03-02T12:05:14.577Z,6.92
2019-03-02T12:06:14.840Z,6.91
2019-03-02T12:07:14.107Z,6.91
2019-03-02T12:08:17.909Z,6.91
2019-03-02T12:09:14.216Z,6.94
2019-03-02T12:10:14.497Z,6.96
2019-03-02T12:11:14.565Z,6.99
2019-03-02T12:12:14.831Z,6.99
2019-03-02T12:13:14.108Z,6.96
2019-03-02T12:14:14.389Z,6.92
2019-03-02T12:15:14.657Z,6.98
2019-03-02T12:16:14.929Z,7.05
2019-03-02T12:17:14.196Z,6.96
2019-03-02T12:18:16.140Z,7.00
2019-03-02T12:19:14.798Z,7.02
2019-03-02T12:20:14.323Z,7.00
2019-03-02T12:21:14.132Z,6.99
2019-03-02T12:22:14.397Z,7.02
2019-03-02T12:23:14.654Z,7.05
2019-03-02T12:24:15.383Z,7.05
2019-03-02T12:25:14.238Z,7.02
2019-03-02T12:26:14.504Z,7.05
2019-03-02T12:27:14.763Z,7.05
2019-03-02T12:28:14.021Z,7.10
2019-03-02T12:29:14.868Z,7.12
2019-03-02T12:30:14.232Z,7.07
2019-03-02T12:31:14.284Z,7.09
2019-03-02T12:32:14.559Z,7.09
2019-03-02T12:33:16.900Z,7.09
2019-03-02T12:34:14.030Z,7.07
2019-03-02T12:35:14.293Z,7.07
2019-03-02T12:36:15.888Z,7.09
2019-03-02T12:37:14.475Z,7.10
2019-03-02T12:38:14.742Z,7.15
2019-03-02T12:39:14.011Z,7.15
2019-03-02T12:40:14.316Z,7.16
2019-03-02T12:41:15.659Z,7.19
2019-03-02T12:42:14.933Z,7.23
2019-03-02T12:43:14.201Z,7.20
2019-03-02T12:44:17.335Z,7.20
2019-03-02T12:45:14.469Z,7.22
2019-03-02T12:46:16.790Z,7.20
2019-03-02T12:47:14.292Z,7.26
2019-03-02T12:48:14.556Z,7.24
2019-03-02T12:49:14.815Z,7.23
2019-03-02T12:50:14.079Z,7.24
2019-03-02T12:51:14.164Z,7.24
2019-03-02T12:52:15.779Z,7.24
2019-03-02T12:53:16.095Z,7.23
2019-03-02T12:54:14.513Z,7.22
2019-03-02T12:55:16.275Z,7.20
2019-03-02T12:56:14.696Z,7.20
2019-03-02T12:57:14.959Z,7.17
2019-03-02T12:58:14.240Z,7.17
2019-03-02T12:59:14.505Z,7.16
2019-03-02T13:00:14.795Z,7.16
2019-03-02T13:01:14.851Z,7.15
2019-03-02T13:02:15.173Z,7.16
2019-03-02T13:03:14.590Z,7.17
2019-03-02T13:04:14.846Z,7.17
2019-03-02T13:05:14.123Z,7.16
2019-03-02T13:06:14.389Z,7.17
2019-03-02T13:07:15.530Z,7.20
2019-03-02T13:08:15.347Z,7.22
2019-03-02T13:09:14.700Z,7.23
2019-03-02T13:10:15.059Z,7.19
2019-03-02T13:11:14.116Z,7.19
2019-03-02T13:12:14.391Z,7.17
2019-03-02T13:13:16.861Z,7.17
2019-03-02T13:14:14.915Z,7.19
2019-03-02T13:15:17.502Z,7.17
2019-03-02T13:16:14.952Z,7.16
2019-03-02T13:17:14.229Z,7.20
2019-03-02T13:18:15.301Z,7.20